Terminal Aerodrome Forecast
Issued by NWS

Home | Current Version | Previous Version | Text Only | Print | Product List | Glossary On
Versions: 1 2 3 4 5 6 7 8 9 10 11 12 13 14 15 16 17 18 19
907
FTPA31 PHFO 231149
TAFHMK
TAF
PHMK 231149Z 2312/2412 03015G25KT P6SM SCT020 BKN035
      TEMPO 2312/2316 P6SM -SHRA BKN020
     FM231800 02019G27KT P6SM VCSH SCT025 BKN040
     FM240500 01024G33KT 4SM -SHRA BR SCT020 OVC035=

USA.gov is the U.S. government's official web portal to all federal, state and local government web resources and services.